Flight Track Log - Related Links

Times and Time Zones

All times are in EDT time to prevent confusion due to time zone crossing. See the UAL1553 flight status page for this flight to view local times or setup timezone preferences in your user account.

Time Position Orientation Groundspeed Altitude Reporting Facility
EDT Latitude Longitude Course Direction KTS MPH feet Rate Location/Type
Sat 10:35:28 PM 29.9533 -95.3444 334° Northwest 182 209 1,000  Level Houston Center
Sat 10:37:00 PM 30.1927 -95.4463 337° Northwest  Level FlightAware Approximate
Sat 10:37:05 PM 29.9878 -95.3983 306° West 242 278 4,000  Level Houston Center
Sat 10:38:00 PM 30.2933 -95.5122 330° Northwest  Level FlightAware Approximate
Sat 10:38:12 PM 30.0606 -95.4378 335° Northwest 273 314 5,000  Level Houston Center
Sat 10:38:54 PM 30.1092 -95.4633 336° Northwest 268 308 5,000 1,721 Level Houston Center
Sat 10:39:00 PM 30.3953 -95.5751 334° Northwest  Level FlightAware Approximate
Sat 10:40:00 PM 30.4995 -95.6331 334° Northwest  Level FlightAware Approximate
Sat 10:40:21 PM 30.2081 -95.5056 340° North 270 311 8,700  Level Houston Center
Sat 10:41:22 PM 30.2814 -95.5386 339° North 280 322 11,000 1,967 Climbing Houston Center
Sat 10:42:23 PM 30.3706 -95.5792 339° North 338 389 12,700 2,132 Climbing Houston Center
Sat 10:43:23 PM 30.4636 -95.6197 339° North 355 409 15,300 2,331 Climbing Houston Center
Sat 10:44:24 PM 30.5594 -95.6633 339° North 368 423 17,400 2,016 Climbing Houston Center
Sat 10:45:25 PM 30.6553 -95.7153 335° Northwest 379 436 19,400 1,967 Climbing Houston Center
Sat 10:46:26 PM 30.7586 -95.7719 335° Northwest 388 447 21,400 1,884 Climbing Houston Center
Sat 10:47:26 PM 30.8611 -95.8264 335° Northwest 400 460 23,200 1,686 Climbing Houston Center
Sat 10:48:27 PM 30.9647 -95.8822 335° Northwest 407 468 24,800 1,475 Climbing Houston Center
Sat 10:49:28 PM 31.0722 -95.9392 336° Northwest 419 482 26,200 1,339 Climbing Houston Center
Sat 10:50:28 PM 31.1850 -95.9911 338° Northwest 429 494 27,500 1,190 Climbing Houston Center
Sat 10:51:29 PM 31.3019 -96.0361 342° North 438 504 28,600 1,180 Climbing Houston Center
Sat 10:52:30 PM 31.4219 -96.0831 342° North 449 517 29,900 1,686 Climbing Houston Center
Sat 10:53:30 PM 31.5514 -96.1322 342° North 444 511 32,000 1,686 Climbing Houston Center
Sat 10:54:31 PM 31.6636 -96.1772 341° North 428 493 33,300 1,180 Climbing Houston Center
Sat 10:55:32 PM 31.7794 -96.2217 342° North 430 495 34,400 942 Climbing Houston Center
Sat 10:56:32 PM 31.8922 -96.2669 341° North 428 493 35,200 744 Climbing Houston Center
Sat 10:57:33 PM 32.0083 -96.3114 342° North 434 499 35,900 393 Climbing Houston Center
Sat 10:58:34 PM 32.1242 -96.3575 341° North 435 501 36,000 50 Climbing Houston Center
Sat 10:59:34 PM 32.2292 -96.4258 331° Northwest 430 495 36,000  Level Houston Center
Sat 11:00:35 PM 32.3181 -96.5264 316° Northwest 437 503 36,000  Level Houston Center
Sat 11:01:54 PM 32.4219 -96.6481 315° West 428 493 36,000  Level Fort Worth Center
Sat 11:02:54 PM 32.5100 -96.7483 316° Northwest 428 493 36,000  Level Fort Worth Center
Sat 11:03:54 PM 32.5961 -96.8439 317° Northwest 428 493 36,000  Level Fort Worth Center
Sat 11:04:54 PM 32.6822 -96.9444 316° Northwest 428 493 36,000  Level Fort Worth Center
Sat 11:05:54 PM 32.7681 -97.0403 317° Northwest 428 493 36,000  Level Fort Worth Center
Sat 11:06:54 PM 32.8622 -97.1489 316° Northwest 434 499 36,000  Level Fort Worth Center
Sat 11:07:54 PM 32.9375 -97.2378 315° West 434 499 36,000  Level Fort Worth Center
Sat 11:08:54 PM 33.0339 -97.3639 312° West 442 509 36,000  Level Fort Worth Center
Sat 11:09:54 PM 33.1131 -97.4631 314° West 442 509 36,000  Level Fort Worth Center
Sat 11:10:54 PM 33.1944 -97.5672 313° West 437 503 36,000  Level Fort Worth Center
Sat 11:11:54 PM 33.2756 -97.6694 314° West 431 496 36,000  Level Fort Worth Center
Sat 11:12:54 PM 33.3608 -97.7742 314° West 431 496 36,000  Level Fort Worth Center
Sat 11:13:54 PM 33.4419 -97.8789 313° West 431 496 36,000  Level Fort Worth Center
Sat 11:14:54 PM 33.5250 -97.9842 313° West 431 496 36,000  Level Fort Worth Center
Sat 11:15:54 PM 33.6058 -98.0894 313° West 431 496 36,000  Level Fort Worth Center
Sat 11:16:54 PM 33.6908 -98.1947 314° West 431 496 36,000  Level Fort Worth Center
Sat 11:17:54 PM 33.7736 -98.3006 313° West 431 496 36,000  Level Fort Worth Center
Sat 11:18:54 PM 33.8583 -98.4064 314° West 431 496 36,000  Level Fort Worth Center
Sat 11:19:54 PM 33.9389 -98.5125 312° West 431 496 36,000  Level Fort Worth Center
Sat 11:20:54 PM 34.0194 -98.6189 312° West 431 496 36,000  Level Fort Worth Center
Sat 11:21:54 PM 34.0997 -98.7278 312° West 426 490 36,000  Level Fort Worth Center
Sat 11:22:54 PM 34.1839 -98.8344 314° West 426 490 36,000  Level Fort Worth Center
Sat 11:23:54 PM 34.2642 -98.9389 313° West 426 490 36,000  Level Fort Worth Center
Sat 11:24:54 PM 34.3442 -99.0433 313° West 421 484 36,000  Level Fort Worth Center
Sat 11:27:05 PM 34.5031 -99.2456 314° West 421 484 36,000  Level Albuquerque Center
Sat 11:28:06 PM 34.5989 -99.3717 313° West 422 486 36,000  Level Albuquerque Center
Sat 11:29:07 PM 34.6794 -99.4772 313° West 422 486 36,000  Level Albuquerque Center
Sat 11:30:08 PM 34.7586 -99.5833 312° West 423 487 36,000  Level Albuquerque Center
Sat 11:31:09 PM 34.8383 -99.6886 313° West 421 484 36,000  Level Albuquerque Center
Sat 11:32:10 PM 34.9181 -99.7956 312° West 423 487 36,000  Level Albuquerque Center
Sat 11:33:11 PM 34.9978 -99.9017 313° West 423 487 36,000  Level Albuquerque Center
Sat 11:34:12 PM 35.0772 -100.0081 312° West 422 486 36,000  Level Albuquerque Center
Sat 11:35:13 PM 35.1569 -100.1156 312° West 423 487 36,000  Level Albuquerque Center
Sat 11:36:14 PM 35.2361 -100.2244 312° West 425 489 36,000  Level Albuquerque Center
Sat 11:37:15 PM 35.3164 -100.3322 312° West 425 489 36,000  Level Albuquerque Center
Sat 11:38:16 PM 35.3958 -100.4403 312° West 425 489 36,000  Level Albuquerque Center
Sat 11:39:17 PM 35.4739 -100.5481 312° West 423 487 36,000  Level Albuquerque Center
Sat 11:40:17 PM 35.5575 -100.6603 313° West 422 486 36,000  Level Albuquerque Center
Sat 11:41:18 PM 35.6361 -100.7672 312° West 423 487 36,000  Level Albuquerque Center
Sat 11:42:19 PM 35.7136 -100.8739 312° West 422 486 36,000  Level Albuquerque Center
Sat 11:43:20 PM 35.7911 -100.9811 312° West 421 484 36,000  Level Albuquerque Center
Sat 11:44:21 PM 35.8700 -101.0914 311° West 426 490 36,000  Level Albuquerque Center
Sat 11:45:22 PM 35.9492 -101.2017 312° West 429 494 36,000  Level Albuquerque Center
Sat 11:46:22 PM 36.0264 -101.3092 312° West 427 491 36,000  Level Albuquerque Center
Sat 11:47:23 PM 36.1056 -101.4211 311° West 431 496 36,000  Level Albuquerque Center
Sat 11:48:24 PM 36.2000 -101.5539 311° West 432 497 36,000  Level Albuquerque Center
Sat 11:49:25 PM 36.2786 -101.6650 311° West 431 496 36,000  Level Albuquerque Center
Sat 11:50:25 PM 36.3567 -101.7744 312° West 428 493 36,000  Level Albuquerque Center
Sat 11:51:26 PM 36.4336 -101.8839 311° West 424 488 36,000  Level Albuquerque Center
Sat 11:52:27 PM 36.5106 -101.9939 311° West 423 487 36,000  Level Albuquerque Center
Sat 11:53:28 PM 36.5872 -102.1033 311° West 422 486 36,000  Level Albuquerque Center
Sat 11:54:28 PM 36.6625 -102.2106 311° West 416 479 36,000  Level Albuquerque Center
Sat 11:55:29 PM 36.7378 -102.3200 311° West 416 479 36,000  Level Albuquerque Center
Sat 11:56:30 PM 36.8133 -102.4286 311° West 416 479 36,000  Level Albuquerque Center
Sat 11:57:30 PM 36.8889 -102.5372 311° West 413 475 36,000  Level Albuquerque Center
Sat 11:58:31 PM 36.9733 -102.6600 311° West 415 478 36,000  Level Albuquerque Center
Sat 11:59:32 PM 37.0458 -102.7656 311° West 417 480 36,000  Level Albuquerque Center
Sun 12:00:32 AM 37.1200 -102.8722 311° West 422 486 36,000  Level Albuquerque Center
Sun 12:01:33 AM 37.2044 -102.9986 310° West 424 488 36,000  Level Albuquerque Center
Sun 12:02:34 AM 37.2792 -103.1067 311° West 425 489 36,000  Level Albuquerque Center
Sun 12:03:34 AM 37.3528 -103.2153 310° West 427 491 36,000  Level Albuquerque Center
Sun 12:04:35 AM 37.4383 -103.3403 311° West 425 489 36,000  Level Albuquerque Center
Sun 12:05:36 AM 37.5111 -103.4497 310° West 426 490 36,000  Level Albuquerque Center
Sun 12:06:36 AM 37.5839 -103.5575 310° West 425 489 36,000  Level Albuquerque Center
Sun 12:07:51 AM 37.6803 -103.7011 310° West 426 490 36,000  Level Denver Center
Sun 12:08:51 AM 37.7519 -103.8089 310° West 423 487 36,000  Level Denver Center
Sun 12:09:52 AM 37.8350 -103.9347 310° West 420 483 36,000  Level Denver Center
Sun 12:10:52 AM 37.9058 -104.0436 310° West 422 486 36,000  Level Denver Center
Sun 12:11:53 AM 37.9897 -104.1714 310° West 425 489 36,000  Level Denver Center
Sun 12:12:53 AM 38.0617 -104.2814 310° West 425 489 36,000  Level Denver Center
Sun 12:13:54 AM 38.1350 -104.3928 310° West 429 494 36,000  Level Denver Center
Sun 12:14:54 AM 38.2192 -104.5244 309° West 432 497 36,000  Level Denver Center
Sun 12:15:55 AM 38.2914 -104.6361 310° West 429 494 36,000  Level Denver Center
Sun 12:16:55 AM 38.3644 -104.7500 309° West 427 491 36,000  Level Denver Center
Sun 12:17:56 AM 38.4394 -104.8642 310° West 421 484 36,000  Level Denver Center
Sun 12:18:56 AM 38.5117 -104.9789 309° West 414 476 36,000  Level Denver Center
Sun 12:19:57 AM 38.5858 -105.0919 310° West 414 476 36,000  Level Denver Center
Sun 12:20:57 AM 38.6583 -105.2064 309° West 414 476 36,000  Level Denver Center
Sun 12:21:58 AM 38.7306 -105.3217 309° West 414 476 36,000  Level Denver Center
Sun 12:22:58 AM 38.8039 -105.4369 309° West 415 478 36,000  Level Denver Center
Sun 12:23:59 AM 38.8764 -105.5506 309° West 412 474 36,000  Level Denver Center
Sun 12:24:59 AM 38.9497 -105.6675 309° West 418 481 36,000  Level Denver Center
Sun 12:25:59 AM 39.0225 -105.7833 309° West 418 481 36,000  Level Denver Center
Sun 12:27:00 AM 39.0947 -105.9000 309° West 416 479 36,000  Level Denver Center
Sun 12:28:00 AM 39.1675 -106.0161 309° West 416 479 36,000  Level Denver Center
Sun 12:29:01 AM 39.2397 -106.1336 308° West 417 480 36,000  Level Denver Center
Sun 12:30:01 AM 39.3214 -106.2633 309° West 416 479 36,000  Level Denver Center
Sun 12:31:02 AM 39.3889 -106.3756 308° West 414 476 36,000  Level Denver Center
Sun 12:32:02 AM 39.4631 -106.4942 309° West 415 478 36,000  Level Denver Center
Sun 12:33:02 AM 39.5389 -106.6197 308° West 418 481 36,000  Level Denver Center
Sun 12:34:03 AM 39.6067 -106.7308 308° West 406 467 36,000  Level Denver Center
Sun 12:35:03 AM 39.6767 -106.8481 308° West 419 482 36,000  Level Denver Center
Sun 12:36:03 AM 39.7486 -106.9661 308° West 426 490 36,000  Level Denver Center
Sun 12:37:03 AM 39.8183 -107.0833 308° West 416 479 36,000  Level Denver Center
Sun 12:38:04 AM 39.8936 -107.2086 308° West 417 480 36,000  Level Denver Center
Sun 12:39:04 AM 39.9603 -107.3200 308° West 411 473 36,000  Level Denver Center
Sun 12:40:04 AM 40.0397 -107.4533 308° West 416 479 36,000  Level Denver Center
Sun 12:41:05 AM 40.1072 -107.5689 307° West 419 482 36,000  Level Denver Center
Sun 12:42:05 AM 40.1756 -107.6819 308° West 416 479 36,000  Level Denver Center
Sun 12:43:05 AM 40.2528 -107.8161 307° West 414 476 36,000  Level Denver Center
Sun 12:44:06 AM 40.3211 -107.9336 307° West 423 487 36,000  Level Denver Center
Sun 12:45:06 AM 40.3894 -108.0489 308° West 421 484 36,000  Level Denver Center
Sun 12:46:06 AM 40.4567 -108.1650 307° West 418 481 36,000  Level Denver Center
Sun 12:47:06 AM 40.5356 -108.3044 307° West 425 489 36,000  Level Denver Center
Sun 12:48:02 AM 40.6008 -108.4189 307° West 424 488 36,000  Level Salt Lake Center
Sun 12:49:03 AM 40.6692 -108.5367 307° West 423 487 36,000  Level Salt Lake Center
Sun 12:50:03 AM 40.7383 -108.6586 307° West 430 495 36,000  Level Salt Lake Center
Sun 12:51:05 AM 40.8186 -108.8006 307° West 431 496 36,000  Level Salt Lake Center
Sun 12:52:05 AM 40.8881 -108.9222 307° West 433 498 36,000  Level Salt Lake Center
Sun 12:53:06 AM 40.9569 -109.0456 307° West 434 499 36,000  Level Salt Lake Center
Sun 12:54:06 AM 41.0375 -109.1903 306° West 434 499 36,000  Level Salt Lake Center
Sun 12:55:07 AM 41.1072 -109.3156 306° West 437 503 36,000  Level Salt Lake Center
Sun 12:56:08 AM 41.1781 -109.4417 307° West 440 506 36,000  Level Salt Lake Center
Sun 12:57:09 AM 41.2589 -109.5875 306° West 438 504 36,000  Level Salt Lake Center
Sun 12:58:09 AM 41.3272 -109.7119 306° West 434 499 36,000  Level Salt Lake Center
Sun 12:59:10 AM 41.3958 -109.8347 307° West 432 497 36,000  Level Salt Lake Center
Sun 01:01:03 AM 41.5297 -110.0817 306° West 429 494 36,000  Level Salt Lake Center
Sun 01:02:03 AM 41.5969 -110.2047 306° West 428 493 36,000  Level Salt Lake Center
Sun 01:03:04 AM 41.6742 -110.3489 306° West 428 493 36,000  Level Salt Lake Center
Sun 01:04:05 AM 41.7406 -110.4711 306° West 425 489 36,000  Level Salt Lake Center
Sun 01:05:05 AM 41.8083 -110.5953 306° West 430 495 36,000  Level Salt Lake Center
Sun 01:06:06 AM 41.8742 -110.7211 305° West 430 495 36,000  Level Salt Lake Center
Sun 01:07:06 AM 41.9519 -110.8672 306° West 430 495 36,000  Level Salt Lake Center
Sun 01:08:07 AM 42.0147 -110.9853 306° West 434 499 36,000  Level Salt Lake Center
Sun 01:09:08 AM 42.0844 -111.1167 306° West 434 499 36,000  Level Salt Lake Center
Sun 01:10:08 AM 42.1525 -111.2483 305° West 432 497 36,000  Level Salt Lake Center
Sun 01:11:09 AM 42.2356 -111.4058 305° West 431 496 36,000  Level Salt Lake Center
Sun 01:12:09 AM 42.3042 -111.5394 305° West 435 501 36,000  Level Salt Lake Center
Sun 01:13:10 AM 42.3728 -111.6703 305° West 431 496 36,000  Level Salt Lake Center
Sun 01:14:11 AM 42.4414 -111.8039 305° West 433 498 36,000 496 Level Salt Lake Center
Sun 01:15:11 AM 42.5100 -111.9378 305° West 434 499 37,000 992 Climbing Salt Lake Center
Sun 01:16:12 AM 42.5778 -112.0686 305° West 429 494 38,000 496 Climbing Salt Lake Center
Sun 01:17:12 AM 42.6442 -112.2000 305° West 425 489 38,000  Level Salt Lake Center
Sun 01:18:13 AM 42.7153 -112.3389 305° West 427 491 38,000  Level Salt Lake Center
Sun 01:19:13 AM 42.7797 -112.4658 305° West 425 489 38,000  Level Salt Lake Center
Sun 01:20:14 AM 42.8436 -112.5933 304° West 425 489 38,000  Level Salt Lake Center
Sun 01:21:14 AM 42.9183 -112.7439 304° West 428 493 38,000  Level Salt Lake Center
Sun 01:22:15 AM 42.9825 -112.8728 304° West 429 494 38,000  Level Salt Lake Center
Sun 01:23:15 AM 43.0475 -113.0033 304° West 432 497 38,000  Level Salt Lake Center
Sun 01:24:16 AM 43.1111 -113.1319 304° West 427 491 38,000  Level Salt Lake Center
Sun 01:25:16 AM 43.2000 -113.2744 311° West 438 504 38,000  Level Salt Lake Center
Sun 01:26:17 AM 43.2733 -113.3958 310° West 433 498 38,000  Level Salt Lake Center
Sun 01:27:17 AM 43.3475 -113.5164 310° West 430 495 38,000  Level Salt Lake Center
Sun 01:28:18 AM 43.4328 -113.6594 309° West 432 497 38,000  Level Salt Lake Center
Sun 01:29:18 AM 43.5103 -113.7861 310° West 449 517 38,000  Level Salt Lake Center
Sun 01:30:19 AM 43.5850 -113.9083 310° West 440 506 38,000  Level Salt Lake Center
Sun 01:31:19 AM 43.6653 -114.0478 309° West 423 487 38,000  Level Salt Lake Center
Sun 01:32:20 AM 43.7381 -114.1711 309° West 432 497 38,000  Level Salt Lake Center
Sun 01:33:20 AM 43.8111 -114.2947 309° West 434 499 38,000  Level Salt Lake Center
Sun 01:34:20 AM 43.8836 -114.4181 309° West 433 498 38,000  Level Salt Lake Center
Sun 01:35:21 AM 43.9681 -114.5606 309° West 430 495 38,000  Level Salt Lake Center
Sun 01:36:21 AM 44.0392 -114.6825 309° West 427 491 38,000  Level Salt Lake Center
Sun 01:37:22 AM 44.1114 -114.8053 309° West 428 493 38,000  Level Salt Lake Center
Sun 01:38:22 AM 44.1947 -114.9483 309° West 426 490 38,000  Level Salt Lake Center
Sun 01:39:23 AM 44.2639 -115.0706 308° West 422 486 38,000  Level Salt Lake Center
Sun 01:40:23 AM 44.3342 -115.1925 309° West 421 484 38,000  Level Salt Lake Center
Sun 01:41:24 AM 44.4158 -115.3361 309° West 422 486 38,000  Level Salt Lake Center
Sun 01:42:24 AM 44.4869 -115.4589 309° West 425 489 38,000  Level Salt Lake Center
Sun 01:43:24 AM 44.5572 -115.5831 308° West 426 490 38,000  Level Salt Lake Center
Sun 01:44:25 AM 44.6400 -115.7292 309° West 431 496 38,000  Level Salt Lake Center
Sun 01:45:25 AM 44.7106 -115.8544 308° West 431 496 38,000  Level Salt Lake Center
Sun 01:46:26 AM 44.7808 -115.9794 308° West 430 495 38,000  Level Salt Lake Center
Sun 01:47:26 AM 44.8625 -116.1283 308° West 432 497 38,000  Level Salt Lake Center
Sun 01:48:27 AM 44.9317 -116.2561 307° West 432 497 38,000  Level Salt Lake Center
Sun 01:49:27 AM 45.0017 -116.3828 308° West 430 495 38,000  Level Salt Lake Center
Sun 01:50:28 AM 45.0822 -116.5292 308° West 425 489 38,000  Level Salt Lake Center
Sun 01:51:28 AM 45.1511 -116.6569 307° West 426 490 38,000  Level Salt Lake Center
Sun 01:52:28 AM 45.2211 -116.7850 308° West 428 493 38,000  Level Salt Lake Center
Sun 01:53:29 AM 45.3019 -116.9344 308° West 428 493 38,000  Level Salt Lake Center
Sun 01:54:29 AM 45.3706 -117.0622 307° West 426 490 38,000  Level Salt Lake Center
Sun 01:55:30 AM 45.4383 -117.1917 307° West 426 490 38,000  Level Salt Lake Center
Sun 01:56:30 AM 45.5175 -117.3392 307° West 422 486 38,000  Level Salt Lake Center
Sun 01:57:31 AM 45.5847 -117.4664 307° West 420 483 38,000  Level Salt Lake Center
Sun 01:58:31 AM 45.6517 -117.5933 307° West 419 482 38,000  Level Salt Lake Center
Sun 01:59:31 AM 45.7181 -117.7203 307° West 418 481 38,000  Level Salt Lake Center
Sun 02:00:32 AM 45.7861 -117.8522 307° West 419 482 38,000  Level Salt Lake Center
Sun 02:01:32 AM 45.8550 -117.9839 307° West 416 479 38,000  Level Salt Lake Center
Sun 02:02:33 AM 45.9236 -118.1161 307° West 415 478 38,000  Level Salt Lake Center
Sun 02:03:33 AM 45.9922 -118.2478 307° West 414 476 38,000  Level Salt Lake Center
Sun 02:04:34 AM 46.0586 -118.3797 306° West 410 472 38,000  Level Salt Lake Center
Sun 02:05:56 AM 46.1508 -118.5592 307° West 402 463 38,000  Level Seattle Center
Sun 02:06:56 AM 46.2158 -118.6889 306° West 402 463 38,000  Level Seattle Center
Sun 02:07:56 AM 46.2928 -118.8417 306° West 404 465 38,000  Level Seattle Center
Sun 02:08:57 AM 46.3456 -118.9475 306° West 396 456 38,000  Level Seattle Center
Sun 02:09:57 AM 46.4086 -119.0731 306° West 390 449 38,000  Level Seattle Center
Sun 02:10:57 AM 46.4844 -119.2269 306° West 392 451 38,000  Level Seattle Center
Sun 02:11:58 AM 46.5467 -119.3517 306° West 386 444 38,000  Level Seattle Center
Sun 02:12:58 AM 46.6094 -119.4783 306° West 387 445 38,000  Level Seattle Center
Sun 02:13:59 AM 46.6719 -119.6047 306° West 386 444 38,000  Level Seattle Center
Sun 02:14:59 AM 46.7347 -119.7322 306° West 387 445 38,000  Level Seattle Center
Sun 02:15:59 AM 46.7961 -119.8628 305° West 390 449 38,000  Level Seattle Center
Sun 02:17:00 AM 46.8578 -119.9906 305° West 387 445 38,000  Level Seattle Center
Sun 02:18:00 AM 46.9203 -120.1192 305° West 388 447 38,000  Level Seattle Center
Sun 02:19:00 AM 46.9836 -120.2439 307° West 385 443 38,000  Level Seattle Center
Sun 02:20:01 AM 47.0656 -120.3464 320° Northwest 384 442 38,000  Level Seattle Center
Sun 02:21:01 AM 47.1478 -120.4497 319° Northwest 388 447 38,000 -50 Level Seattle Center
Sun 02:22:01 AM 47.2286 -120.5514 320° Northwest 384 442 37,900 -50 Descending Seattle Center
Sun 02:23:02 AM 47.3103 -120.6567 319° Northwest 390 449 37,900  Level Seattle Center
Sun 02:24:02 AM 47.3908 -120.7603 319° Northwest 386 444 37,900 50 Level Seattle Center
Sun 02:25:02 AM 47.4761 -120.8681 320° Northwest 381 438 38,000 50 Climbing Seattle Center
Sun 02:26:03 AM 47.5561 -120.9717 319° Northwest 384 442 38,000  Level Seattle Center
Sun 02:27:03 AM 47.6378 -121.0731 320° Northwest 389 448 38,000  Level Seattle Center
Sun 02:28:03 AM 47.7156 -121.1756 318° Northwest 383 441 38,000  Level Seattle Center
Sun 02:29:04 AM 47.7953 -121.2783 319° Northwest 383 441 38,000 -496 Level Seattle Center
Sun 02:30:04 AM 47.8733 -121.3806 319° Northwest 381 438 37,000 -2,300 Descending Seattle Center
Sun 02:31:04 AM 47.9531 -121.4867 318° Northwest 386 444 33,400 -3,669 Descending Seattle Center
Sun 02:32:05 AM 48.0403 -121.6019 319° Northwest 416 479 29,600 -3,124 Descending Seattle Center
Sun 02:33:05 AM 48.1294 -121.7186 319° Northwest 432 497 27,100 -2,281 Descending Seattle Center
Sun 02:34:06 AM 48.2133 -121.8325 318° Northwest 418 481 25,000 -2,132 Descending Seattle Center
Sun 02:35:06 AM 48.3103 -121.9639 318° Northwest 402 463 22,800 -2,100 Descending Seattle Center
Sun 02:36:06 AM 48.3906 -122.0711 318° Northwest 395 455 20,800 -1,983 Descending Seattle Center
Sun 02:37:07 AM 48.4667 -122.1761 318° Northwest 381 438 18,800 -2,033 Descending Seattle Center
Sun 02:38:07 AM 48.5428 -122.2781 318° Northwest 374 430 16,700 -2,150 Descending Seattle Center
Sun 02:39:07 AM 48.6158 -122.3778 318° Northwest 365 420 14,500 -2,083 Descending Seattle Center
Sun 02:40:08 AM 48.6847 -122.4733 318° Northwest 349 402 12,500 -1,240 Descending Seattle Center
Sun 02:41:08 AM 48.7478 -122.5694 315° West 332 382 12,000 -629 Descending Seattle Center
Sun 02:42:12 AM 48.8000 -122.6833 305° West 310 357 11,200 -823 Descending Vancouver Center
Sun 02:43:12 AM 48.8500 -122.7833 307° West 320 368 10,300 -600 Descending Vancouver Center
Sun 02:44:12 AM 48.9167 -122.8833 315° West 320 368 10,000 -700 Descending Vancouver Center
Sun 02:45:12 AM 48.9667 -122.9833 307° West 300 345 8,900 -1,400 Descending Vancouver Center
Sun 02:46:12 AM 49.0167 -123.0667 312° West 280 322 7,200 -1,700 Descending Vancouver Center
Sun 02:47:12 AM 49.0667 -123.1667 307° West 280 322 5,500 -1,450 Descending Vancouver Center
Sun 02:48:12 AM 49.0833 -123.2667 284° West 250 288 4,300 -1,400 Descending Vancouver Center
Sun 02:49:12 AM 49.1000 -123.3333 291° West 230 265 2,700 -1,150 Descending Vancouver Center
Sun 02:50:12 AM 49.1500 -123.3833 327° Northwest 200 230 2,000 -500 Descending Vancouver Center
Sun 02:51:12 AM 49.1833 -123.3667 18° North 190 219 1,700 -450 Descending Vancouver Center
Sun 02:52:12 AM 49.1833 -123.2833 90° East 180 207 1,100 -700 Descending Vancouver Center
Sun 02:53:12 AM 49.1667 -123.2167 111° Southeast 150 173 300 -800 Descending Vancouver Center

Login

Don't have an account? Register now (free) for customized features, flight alerts, and more!